createdAt,value
2022-12-06T00:00:31.031Z,-10.62
2022-12-06T00:03:00.084Z,-10.55
2022-12-06T00:05:29.566Z,-10.90
2022-12-06T00:07:59.255Z,-10.67
2022-12-06T00:10:28.698Z,-10.69
2022-12-06T00:12:58.065Z,-10.65
2022-12-06T00:15:27.325Z,-10.80
2022-12-06T00:17:58.515Z,-10.72
2022-12-06T00:20:27.722Z,-10.64
2022-12-06T00:22:56.945Z,-10.65
2022-12-06T00:25:26.454Z,-10.68
2022-12-06T00:27:55.574Z,-10.69
2022-12-06T00:30:24.974Z,-10.71
2022-12-06T00:32:54.150Z,-10.73
2022-12-06T00:35:30.709Z,-10.73
2022-12-06T00:38:00.180Z,-10.77
2022-12-06T00:40:29.555Z,-10.76
2022-12-06T00:42:58.941Z,-10.82
2022-12-06T00:45:28.317Z,-10.87
2022-12-06T00:47:57.682Z,-10.80
2022-12-06T00:50:27.018Z,-10.83
2022-12-06T00:52:58.807Z,-10.78
2022-12-06T00:55:29.201Z,-10.91
2022-12-06T00:57:58.638Z,-10.82
2022-12-06T01:00:32.973Z,-10.84
2022-12-06T01:03:02.758Z,-10.87
2022-12-06T01:05:32.326Z,-10.93
2022-12-06T01:08:04.885Z,-10.99
2022-12-06T01:10:34.383Z,-11.00
2022-12-06T01:13:03.835Z,-10.96
2022-12-06T01:15:33.078Z,-10.97
2022-12-06T01:18:02.335Z,-11.34
2022-12-06T01:20:31.526Z,-10.94
2022-12-06T01:23:01.007Z,-10.92
2022-12-06T01:25:35.768Z,-10.88
2022-12-06T01:28:12.056Z,-10.81
2022-12-06T01:30:41.906Z,-10.76
2022-12-06T01:33:11.243Z,-10.68
2022-12-06T01:35:42.389Z,-10.65
2022-12-06T01:38:12.489Z,-10.61
2022-12-06T01:43:35.183Z,-10.57
2022-12-06T01:46:12.885Z,-10.52
2022-12-06T01:48:43.719Z,-10.48
2022-12-06T01:51:17.645Z,-10.56
2022-12-06T01:53:49.248Z,-10.47
2022-12-06T01:56:21.543Z,-10.45
2022-12-06T01:58:58.732Z,-10.43
2022-12-06T02:01:35.230Z,-10.39
2022-12-06T02:04:06.168Z,-10.39
2022-12-06T02:06:41.833Z,-10.35
2022-12-06T02:09:12.963Z,-10.41
2022-12-06T02:11:46.934Z,-10.40
2022-12-06T02:14:20.200Z,-10.43
2022-12-06T02:17:09.341Z,-10.48
2022-12-06T02:19:59.727Z,-10.45
2022-12-06T02:22:38.756Z,-10.47
2022-12-06T02:25:41.984Z,-10.51
2022-12-06T02:28:35.139Z,-10.44
2022-12-06T02:31:13.006Z,-10.41
2022-12-06T02:33:49.133Z,-10.41
2022-12-06T02:36:24.529Z,-10.39
2022-12-06T02:39:02.424Z,-10.40
2022-12-06T02:41:37.612Z,-10.40
2022-12-06T02:44:10.331Z,-10.36
2022-12-06T02:46:43.362Z,-10.29
2022-12-06T02:49:15.737Z,-10.25
2022-12-06T02:51:49.058Z,-10.21
2022-12-06T02:54:24.432Z,-10.14
2022-12-06T02:56:53.511Z,-10.10
2022-12-06T02:59:27.833Z,-10.03
2022-12-06T03:02:03.470Z,-10.04
2022-12-06T03:04:49.354Z,-9.95
2022-12-06T03:07:30.278Z,-9.90
2022-12-06T03:10:11.870Z,-9.90
2022-12-06T03:12:51.564Z,-9.96
2022-12-06T03:15:28.636Z,-10.14
2022-12-06T03:18:05.903Z,-10.29
2022-12-06T03:20:46.580Z,-10.13
2022-12-06T03:23:18.596Z,-10.09
2022-12-06T03:25:49.071Z,-10.14
2022-12-06T03:28:20.497Z,-10.08
2022-12-06T03:30:59.920Z,-10.10
2022-12-06T03:33:34.738Z,-10.04
2022-12-06T03:36:05.085Z,-10.05
2022-12-06T03:38:39.321Z,-10.02
2022-12-06T03:41:11.425Z,-10.03
2022-12-06T03:43:40.724Z,-10.01
2022-12-06T03:46:20.951Z,-9.99
2022-12-06T03:48:57.536Z,-9.96
2022-12-06T03:51:30.895Z,-9.93
2022-12-06T03:54:02.639Z,-9.91
2022-12-06T03:56:36.347Z,-9.91
2022-12-06T03:59:05.877Z,-10.22
2022-12-06T04:01:40.287Z,-10.05
2022-12-06T04:04:12.435Z,-10.24
2022-12-06T04:06:41.719Z,-10.10
2022-12-06T04:09:23.780Z,-10.20
2022-12-06T04:11:58.221Z,-10.17
2022-12-06T04:14:31.912Z,-10.22
2022-12-06T04:17:14.170Z,-10.33
2022-12-06T04:19:52.305Z,-10.29
2022-12-06T04:22:34.601Z,-10.29
2022-12-06T04:25:03.954Z,-10.32
2022-12-06T04:27:46.087Z,-10.35
2022-12-06T04:30:28.438Z,-10.43
2022-12-06T04:33:15.565Z,-10.48
2022-12-06T04:35:59.658Z,-10.51
2022-12-06T04:38:49.384Z,-10.61
2022-12-06T04:41:39.072Z,-10.65
2022-12-06T04:44:07.924Z,-10.72
2022-12-06T04:46:42.173Z,-10.76
2022-12-06T04:49:11.693Z,-10.71
2022-12-06T04:51:42.812Z,-10.75
2022-12-06T04:56:55.013Z,-10.79
2022-12-06T04:59:24.265Z,-10.84
2022-12-06T05:01:59.223Z,-10.87
2022-12-06T05:04:28.511Z,-10.88
2022-12-06T05:06:59.827Z,-10.92
2022-12-06T05:09:36.456Z,-10.85
2022-12-06T05:12:06.158Z,-10.84
2022-12-06T05:14:35.445Z,-10.79
2022-12-06T05:17:04.877Z,-10.79
2022-12-06T05:19:34.141Z,-10.76
2022-12-06T05:22:05.565Z,-10.86
2022-12-06T05:24:35.120Z,-10.76
2022-12-06T05:27:18.323Z,-10.77
2022-12-06T05:29:47.620Z,-10.78
2022-12-06T05:32:16.923Z,-10.87
2022-12-06T05:34:46.401Z,-10.77
2022-12-06T05:37:17.730Z,-10.76
2022-12-06T05:39:52.343Z,-10.78
2022-12-06T05:42:22.580Z,-10.75
2022-12-06T05:44:57.082Z,-10.96
2022-12-06T05:47:31.561Z,-10.79
2022-12-06T05:50:01.213Z,-10.90
2022-12-06T05:52:32.881Z,-11.16
2022-12-06T05:55:02.344Z,-10.75
2022-12-06T05:57:32.311Z,-10.77
2022-12-06T06:00:01.814Z,-10.77
2022-12-06T06:02:35.949Z,-10.74
2022-12-06T06:05:15.790Z,-10.66
2022-12-06T06:07:47.136Z,-10.56
2022-12-06T06:10:19.405Z,-10.51
2022-12-06T06:12:48.628Z,-10.44
2022-12-06T06:15:18.281Z,-10.59
2022-12-06T06:17:47.649Z,-10.41
2022-12-06T06:20:16.831Z,-10.56
2022-12-06T06:22:48.046Z,-10.49
2022-12-06T06:25:17.348Z,-10.39
2022-12-06T06:27:49.781Z,-10.40
2022-12-06T06:30:20.134Z,-10.39
2022-12-06T06:32:50.123Z,-10.36
2022-12-06T06:35:19.372Z,-10.37
2022-12-06T06:37:55.561Z,-10.30
2022-12-06T06:40:25.086Z,-10.24
2022-12-06T06:42:54.231Z,-10.22
2022-12-06T06:45:28.426Z,-10.22
2022-12-06T06:48:03.422Z,-10.24
2022-12-06T06:50:33.003Z,-10.24
2022-12-06T06:53:04.296Z,-10.28
2022-12-06T06:55:38.629Z,-10.25
2022-12-06T06:58:07.930Z,-10.20
2022-12-06T07:00:37.622Z,-10.09
2022-12-06T07:03:14.278Z,-10.03
2022-12-06T07:05:44.272Z,-9.96
2022-12-06T07:08:15.884Z,-9.86
2022-12-06T07:10:48.250Z,-9.78
2022-12-06T07:13:17.567Z,-9.78
2022-12-06T07:15:50.287Z,-9.72
2022-12-06T07:18:31.318Z,-9.50
2022-12-06T07:21:08.409Z,-9.43
2022-12-06T07:23:39.686Z,-9.41
2022-12-06T07:26:11.854Z,-9.36
2022-12-06T07:28:42.959Z,-9.33
2022-12-06T07:31:18.609Z,-9.28
2022-12-06T07:33:54.125Z,-9.19
2022-12-06T07:36:23.947Z,-9.32
2022-12-06T07:38:56.937Z,-9.29
2022-12-06T07:41:42.137Z,-9.16
2022-12-06T07:44:33.542Z,-9.09
2022-12-06T07:47:03.549Z,-9.11
2022-12-06T07:49:32.947Z,-9.01
2022-12-06T07:52:08.539Z,-9.04
2022-12-06T07:54:41.617Z,-9.18
2022-12-06T07:57:10.866Z,-9.28
2022-12-06T07:59:41.362Z,-9.34
2022-12-06T08:02:20.176Z,-9.41
2022-12-06T08:04:49.676Z,-9.53
2022-12-06T08:07:18.953Z,-9.54
2022-12-06T08:09:56.220Z,-9.60
2022-12-06T08:12:25.854Z,-9.77
2022-12-06T08:14:59.445Z,-9.55
2022-12-06T08:17:30.048Z,-9.53
2022-12-06T08:19:59.617Z,-9.48
2022-12-06T08:22:29.871Z,-9.46
2022-12-06T08:25:01.359Z,-9.48
2022-12-06T08:27:32.749Z,-9.46
2022-12-06T08:30:07.087Z,-9.38
2022-12-06T08:32:37.452Z,-9.33
2022-12-06T08:35:07.329Z,-9.31
2022-12-06T08:37:36.549Z,-9.27
2022-12-06T08:40:09.607Z,-9.20
2022-12-06T08:42:38.850Z,-9.11
2022-12-06T08:45:09.157Z,-9.10
2022-12-06T08:47:38.462Z,-9.31
2022-12-06T08:50:09.230Z,-9.05
2022-12-06T08:52:38.582Z,-8.94
2022-12-06T08:55:10.628Z,-8.93
2022-12-06T08:57:40.157Z,-8.89
2022-12-06T09:00:11.475Z,-8.84
2022-12-06T09:02:41.183Z,-8.83
2022-12-06T09:05:11.459Z,-8.77
2022-12-06T09:07:40.836Z,-8.76
2022-12-06T09:10:13.717Z,-8.84
2022-12-06T09:12:47.998Z,-8.81
2022-12-06T09:15:17.387Z,-8.68
2022-12-06T09:17:46.599Z,-8.64
2022-12-06T09:20:17.776Z,-8.66
2022-12-06T09:22:47.156Z,-8.56
2022-12-06T09:25:19.208Z,-8.50
2022-12-06T09:27:50.064Z,-8.49
2022-12-06T09:30:19.518Z,-8.63
2022-12-06T09:32:49.019Z,-8.39
2022-12-06T09:35:25.309Z,-8.33
2022-12-06T09:37:54.942Z,-8.30
2022-12-06T09:40:37.372Z,-8.24
2022-12-06T09:43:30.664Z,-8.18
2022-12-06T09:46:21.892Z,-8.14
2022-12-06T09:49:10.435Z,-8.13
2022-12-06T09:51:55.179Z,-8.12
2022-12-06T09:54:38.538Z,-8.25
2022-12-06T09:57:23.316Z,-8.01
2022-12-06T10:00:06.347Z,-8.06
2022-12-06T10:05:57.666Z,-7.97
2022-12-06T10:08:41.804Z,-8.35
2022-12-06T10:11:22.305Z,-7.98
2022-12-06T10:14:03.932Z,-7.89
2022-12-06T10:16:46.647Z,-7.87
2022-12-06T10:19:27.599Z,-7.80
2022-12-06T10:22:08.975Z,-7.80
2022-12-06T10:24:51.183Z,-7.70
2022-12-06T10:27:28.206Z,-7.62
2022-12-06T10:30:03.546Z,-7.64
2022-12-06T10:32:57.207Z,-7.61
2022-12-06T10:35:43.070Z,-7.43
2022-12-06T10:38:29.798Z,-7.42
2022-12-06T10:41:22.128Z,-7.44
2022-12-06T10:44:04.030Z,-7.44
2022-12-06T10:46:54.912Z,-7.43
2022-12-06T10:49:34.191Z,-7.62
2022-12-06T10:52:11.853Z,-7.30
2022-12-06T10:54:45.756Z,-7.45
2022-12-06T10:57:21.127Z,-7.26
2022-12-06T11:00:03.216Z,-7.28
2022-12-06T11:02:54.177Z,-7.14
2022-12-06T11:05:29.427Z,-7.17
2022-12-06T11:08:06.333Z,-7.17
2022-12-06T11:10:37.235Z,-7.22
2022-12-06T11:13:21.145Z,-7.18
2022-12-06T11:15:55.011Z,-7.22
2022-12-06T11:18:30.552Z,-7.19
2022-12-06T11:21:05.783Z,-7.21
2022-12-06T11:23:45.135Z,-7.19
2022-12-06T11:26:22.537Z,-7.20
2022-12-06T11:29:04.651Z,-7.27
2022-12-06T11:31:38.459Z,-7.10
2022-12-06T11:34:18.151Z,-7.08
2022-12-06T11:36:55.257Z,-7.07
2022-12-06T11:39:28.816Z,-7.13
2022-12-06T11:42:01.238Z,-7.14
2022-12-06T11:44:44.857Z,-7.15
2022-12-06T11:47:21.304Z,-7.11
2022-12-06T11:49:55.825Z,-7.12
2022-12-06T11:52:32.357Z,-7.07
2022-12-06T11:55:04.817Z,-7.01
2022-12-06T11:57:39.371Z,-7.01
2022-12-06T12:00:14.229Z,-6.95
2022-12-06T12:02:45.704Z,-6.86
2022-12-06T12:05:25.064Z,-6.79
2022-12-06T12:08:02.314Z,-6.74
2022-12-06T12:10:43.644Z,-6.94
2022-12-06T12:13:34.788Z,-6.62
2022-12-06T12:16:09.285Z,-6.68
2022-12-06T12:18:42.315Z,-6.74
2022-12-06T12:21:13.815Z,-6.78
2022-12-06T12:23:46.663Z,-6.88
2022-12-06T12:26:18.312Z,-6.83
2022-12-06T12:29:03.537Z,-7.10
2022-12-06T12:31:33.248Z,-6.89
2022-12-06T12:34:19.671Z,-6.91
2022-12-06T12:36:58.762Z,-6.96
2022-12-06T12:39:33.807Z,-7.01
2022-12-06T12:42:09.433Z,-7.28
2022-12-06T12:44:41.109Z,-7.14
2022-12-06T12:47:18.338Z,-7.10
2022-12-06T12:58:00.468Z,-7.67
2022-12-06T13:00:33.821Z,-7.76
2022-12-06T13:03:18.061Z,-7.66
2022-12-06T13:05:57.747Z,-7.68
2022-12-06T13:08:32.334Z,-7.65
2022-12-06T13:11:07.177Z,-7.76
2022-12-06T13:13:41.674Z,-7.68
2022-12-06T13:16:16.612Z,-7.58
2022-12-06T13:18:48.867Z,-7.56
2022-12-06T13:21:23.397Z,-7.55
2022-12-06T13:23:57.368Z,-7.55
2022-12-06T13:26:34.448Z,-7.55
2022-12-06T13:29:23.043Z,-7.53
2022-12-06T13:31:58.898Z,-7.50
2022-12-06T13:34:37.845Z,-7.47
2022-12-06T13:37:28.889Z,-7.43
2022-12-06T13:40:04.403Z,-7.48
2022-12-06T13:42:47.512Z,-7.47
2022-12-06T13:45:45.160Z,-7.40
2022-12-06T13:48:54.609Z,-7.37
2022-12-06T13:51:46.402Z,-7.42
2022-12-06T13:54:36.306Z,-7.40
2022-12-06T13:57:30.597Z,-7.35
2022-12-06T14:00:02.352Z,-7.38
2022-12-06T14:02:47.654Z,-7.39
2022-12-06T14:05:46.993Z,-7.38
2022-12-06T14:08:16.369Z,-7.47
2022-12-06T14:10:45.516Z,-7.33
2022-12-06T14:13:19.926Z,-7.22
2022-12-06T14:15:54.061Z,-7.32
2022-12-06T14:18:26.495Z,-7.34
2022-12-06T14:20:57.779Z,-7.32
2022-12-06T14:23:31.063Z,-7.30
2022-12-06T14:26:21.056Z,-7.23
2022-12-06T14:28:52.614Z,-7.23
2022-12-06T14:31:29.523Z,-7.33
2022-12-06T14:33:59.414Z,-7.30
2022-12-06T14:36:32.523Z,-7.32
2022-12-06T14:39:09.212Z,-7.45
2022-12-06T14:41:52.800Z,-7.40
2022-12-06T14:44:37.007Z,-7.40
2022-12-06T14:47:09.138Z,-7.28
2022-12-06T14:49:51.415Z,-7.26
2022-12-06T14:52:23.542Z,-7.21
2022-12-06T14:54:53.800Z,-7.26
2022-12-06T14:57:31.424Z,-7.18
2022-12-06T15:00:18.026Z,-7.17
2022-12-06T15:03:20.957Z,-7.25
2022-12-06T15:06:21.121Z,-7.15
2022-12-06T15:08:55.449Z,-7.20
2022-12-06T15:11:49.349Z,-7.26
2022-12-06T15:14:21.574Z,-7.29
2022-12-06T15:17:00.053Z,-7.52
2022-12-06T15:19:32.930Z,-7.30
2022-12-06T15:22:04.239Z,-7.29
2022-12-06T15:24:33.786Z,-7.30
2022-12-06T15:27:14.731Z,-7.34
2022-12-06T15:29:44.422Z,-7.38
2022-12-06T15:32:16.156Z,-7.65
2022-12-06T15:34:47.899Z,-7.30
2022-12-06T15:40:09.809Z,-7.38
2022-12-06T15:42:38.983Z,-7.34
2022-12-06T15:45:12.210Z,-7.39
2022-12-06T15:47:49.347Z,-7.30
2022-12-06T15:50:20.699Z,-7.31
2022-12-06T15:52:59.921Z,-7.32
2022-12-06T15:55:29.457Z,-7.27
2022-12-06T15:57:58.574Z,-7.38
2022-12-06T16:00:27.907Z,-7.23
2022-12-06T16:02:57.204Z,-7.21
2022-12-06T16:05:28.505Z,-7.22
2022-12-06T16:07:58.099Z,-7.31
2022-12-06T16:11:10.438Z,-7.22
2022-12-06T16:13:27.566Z,-7.31
2022-12-06T16:15:56.731Z,-7.24
2022-12-06T16:18:26.178Z,-7.23
2022-12-06T16:20:57.408Z,-7.23
2022-12-06T16:24:12.658Z,-7.20
2022-12-06T16:26:38.918Z,-7.23
2022-12-06T16:29:11.900Z,-7.24
2022-12-06T16:31:46.761Z,-7.23
2022-12-06T16:34:16.611Z,-7.25
2022-12-06T16:37:04.561Z,-7.23
2022-12-06T16:39:35.769Z,-7.26
2022-12-06T16:42:06.315Z,-7.28
2022-12-06T16:44:50.470Z,-7.27
2022-12-06T16:49:51.897Z,-7.28
2022-12-06T16:52:28.176Z,-7.27
2022-12-06T16:54:57.501Z,-7.30
2022-12-06T16:57:26.735Z,-7.30
2022-12-06T17:00:01.583Z,-7.27
2022-12-06T17:02:34.681Z,-7.50
2022-12-06T17:05:20.849Z,-7.31
2022-12-06T17:07:52.970Z,-7.59
2022-12-06T17:10:27.319Z,-7.41
2022-12-06T17:12:56.430Z,-7.59
2022-12-06T17:15:25.809Z,-7.49
2022-12-06T17:17:55.268Z,-7.46
2022-12-06T17:20:24.473Z,-7.50
2022-12-06T17:22:56.579Z,-7.53
2022-12-06T17:25:25.760Z,-7.59
2022-12-06T17:27:54.891Z,-7.61
2022-12-06T17:30:24.305Z,-7.64
2022-12-06T17:32:54.018Z,-7.61
2022-12-06T17:35:29.806Z,-7.66
2022-12-06T17:38:01.703Z,-7.87
2022-12-06T17:40:33.942Z,-7.69
2022-12-06T17:43:06.448Z,-7.68
2022-12-06T17:45:36.152Z,-7.74
2022-12-06T17:48:05.769Z,-7.78
2022-12-06T17:50:35.305Z,-7.78
2022-12-06T17:53:11.663Z,-7.77
2022-12-06T17:55:40.947Z,-7.83
2022-12-06T17:58:10.079Z,-7.98
2022-12-06T18:00:39.434Z,-7.93
2022-12-06T18:03:08.660Z,-7.96
2022-12-06T18:05:39.195Z,-8.03
2022-12-06T18:08:10.630Z,-8.21
2022-12-06T18:10:47.833Z,-8.14
2022-12-06T18:13:17.270Z,-8.15
2022-12-06T18:15:46.396Z,-8.14
2022-12-06T18:18:15.495Z,-8.20
2022-12-06T18:20:45.472Z,-8.32
2022-12-06T18:23:16.804Z,-8.30
2022-12-06T18:25:46.018Z,-8.33
2022-12-06T18:28:15.214Z,-8.48
2022-12-06T18:30:44.637Z,-8.30
2022-12-06T18:33:17.657Z,-8.21
2022-12-06T18:35:52.003Z,-8.18
2022-12-06T18:38:29.091Z,-8.24
2022-12-06T18:41:04.507Z,-8.12
2022-12-06T18:43:34.771Z,-8.10
2022-12-06T18:46:10.825Z,-8.04
2022-12-06T18:48:47.393Z,-7.98
2022-12-06T18:51:19.180Z,-8.01
2022-12-06T18:53:52.535Z,-7.91
2022-12-06T18:56:29.689Z,-7.95
2022-12-06T18:59:01.106Z,-7.97
2022-12-06T19:01:33.389Z,-7.97
2022-12-06T19:04:04.705Z,-8.03
2022-12-06T19:06:35.608Z,-8.05
2022-12-06T19:09:10.975Z,-8.01
2022-12-06T19:11:41.649Z,-8.02
2022-12-06T19:14:11.376Z,-8.07
2022-12-06T19:19:26.066Z,-8.15
2022-12-06T19:22:01.613Z,-8.05
2022-12-06T19:24:33.627Z,-8.04
2022-12-06T19:27:08.554Z,-8.07
2022-12-06T19:29:37.850Z,-8.13
2022-12-06T19:32:07.758Z,-8.14
2022-12-06T19:34:36.953Z,-8.18
2022-12-06T19:37:06.109Z,-8.32
2022-12-06T19:39:38.141Z,-8.35
2022-12-06T19:42:20.439Z,-8.32
2022-12-06T19:44:50.131Z,-8.31
2022-12-06T19:47:19.757Z,-8.35
2022-12-06T19:49:49.195Z,-8.42
2022-12-06T19:52:26.570Z,-8.53
2022-12-06T19:55:01.898Z,-8.49
2022-12-06T19:57:39.522Z,-8.53
2022-12-06T20:00:10.531Z,-8.59
2022-12-06T20:02:41.783Z,-8.85
2022-12-06T20:05:11.458Z,-8.68
2022-12-06T20:07:40.697Z,-8.68
2022-12-06T20:10:13.211Z,-8.70
2022-12-06T20:12:42.621Z,-8.71
2022-12-06T20:15:12.904Z,-8.68
2022-12-06T20:17:42.232Z,-8.72
2022-12-06T20:20:11.949Z,-8.77
2022-12-06T20:22:41.416Z,-8.72
2022-12-06T20:25:12.802Z,-8.71
2022-12-06T20:27:55.501Z,-8.59
2022-12-06T20:30:26.100Z,-8.68
2022-12-06T20:32:55.622Z,-8.66
2022-12-06T20:35:26.229Z,-8.65
2022-12-06T20:37:55.693Z,-8.79
2022-12-06T20:40:31.258Z,-8.62
2022-12-06T20:45:36.194Z,-8.68
2022-12-06T20:48:05.832Z,-8.71
2022-12-06T20:50:35.103Z,-8.74
2022-12-06T20:53:09.346Z,-8.80
2022-12-06T20:55:41.178Z,-8.80
2022-12-06T20:58:10.038Z,-8.79
2022-12-06T21:00:42.435Z,-8.87
2022-12-06T21:05:59.000Z,-8.94
2022-12-06T21:08:28.353Z,-9.00
2022-12-06T21:13:41.496Z,-9.04
2022-12-06T21:16:17.844Z,-9.09
2022-12-06T21:18:49.037Z,-9.18
2022-12-06T21:21:25.639Z,-9.14
2022-12-06T21:23:54.962Z,-9.21
2022-12-06T21:26:26.015Z,-9.40
2022-12-06T21:29:00.718Z,-9.26
2022-12-06T21:31:31.289Z,-9.24
2022-12-06T21:34:01.099Z,-9.25
2022-12-06T21:36:36.238Z,-9.28
2022-12-06T21:41:43.171Z,-9.25
2022-12-06T21:44:12.627Z,-9.25
2022-12-06T21:46:42.371Z,-9.36
2022-12-06T21:49:12.466Z,-9.31
2022-12-06T21:51:41.613Z,-9.44
2022-12-06T21:54:15.895Z,-9.56
2022-12-06T21:56:47.044Z,-9.42
2022-12-06T21:59:16.327Z,-9.42
2022-12-06T22:01:45.555Z,-9.36
2022-12-06T22:04:14.699Z,-9.41
2022-12-06T22:06:43.910Z,-9.45
2022-12-06T22:09:13.193Z,-9.45
2022-12-06T22:11:42.540Z,-9.48
2022-12-06T22:14:18.792Z,-9.63
2022-12-06T22:16:48.073Z,-9.56
2022-12-06T22:19:17.256Z,-9.54
2022-12-06T22:21:47.485Z,-9.52
2022-12-06T22:24:16.676Z,-9.74
2022-12-06T22:26:45.912Z,-9.52
2022-12-06T22:29:17.281Z,-9.67
2022-12-06T22:31:46.529Z,-9.46
2022-12-06T22:34:15.724Z,-9.43
2022-12-06T22:36:50.761Z,-9.43
2022-12-06T22:39:20.436Z,-9.40
2022-12-06T22:41:49.529Z,-9.49
2022-12-06T22:44:30.831Z,-9.52
2022-12-06T22:47:00.086Z,-9.40
2022-12-06T22:49:29.555Z,-9.41
2022-12-06T22:54:34.154Z,-9.37
2022-12-06T22:57:03.353Z,-9.32
2022-12-06T22:59:34.589Z,-9.40
2022-12-06T23:02:03.905Z,-9.41
2022-12-06T23:04:33.197Z,-9.44
2022-12-06T23:07:02.782Z,-9.46
2022-12-06T23:09:31.910Z,-9.46
2022-12-06T23:12:01.079Z,-9.48
2022-12-06T23:14:35.397Z,-9.52
2022-12-06T23:17:06.563Z,-9.55
2022-12-06T23:19:35.923Z,-9.54
2022-12-06T23:22:05.133Z,-9.57
2022-12-06T23:24:34.398Z,-9.55
2022-12-06T23:27:03.530Z,-9.53
2022-12-06T23:29:33.045Z,-9.62
2022-12-06T23:32:10.100Z,-9.70
2022-12-06T23:34:41.666Z,-9.72
2022-12-06T23:37:20.985Z,-9.63
2022-12-06T23:39:50.216Z,-9.71
2022-12-06T23:42:19.373Z,-9.84
2022-12-06T23:44:53.922Z,-10.04
2022-12-06T23:47:23.252Z,-10.02
2022-12-06T23:50:04.424Z,-10.04
2022-12-06T23:52:33.864Z,-10.19
2022-12-06T23:55:03.049Z,-10.30
2022-12-06T23:57:37.684Z,-10.49
